Time;durP1;ratioP1;P1;durP2;ratioP2;P2;SDS_P1;SDS_P2;PMS_P1;PMS_P2;Temp;Humidity;BMP_temperature;BMP_pressure;BME280_temperature;BME280_humidity;BME280_pressure;Samples;Min_cycle;Max_cycle;Signal;HPM_P1;HPM_P2
2022/12/20 00:02:14;;;;;;;16.17;5.75;;;;;;;0.32;93.33;101292.53;10442945;28;20037;-74
2022/12/20 00:07:16;;;;;;;12.77;5.45;;;;;;;0.37;93.19;101289.28;10449002;28;20056;-74
2022/12/20 00:12:19;;;;;;;15.48;6.20;;;;;;;0.42;93.16;101267.91;10427944;28;20037;-74
2022/12/20 00:17:21;;;;;;;14.45;5.47;;;;;;;0.48;92.60;101269.78;10435866;28;20133;-74
2022/12/20 00:22:23;;;;;;;12.27;5.15;;;;;;;0.47;93.13;101270.81;10425124;28;20030;-74
2022/12/20 00:27:25;;;;;;;13.40;5.35;;;;;;;0.47;92.61;101262.72;10431783;28;20034;-74
2022/12/20 00:32:27;;;;;;;11.13;5.60;;;;;;;0.35;92.58;101254.38;10435632;28;20037;-73
2022/12/20 00:37:30;;;;;;;9.95;4.80;;;;;;;0.09;91.83;101262.28;10435231;28;20053;-75
2022/12/20 00:42:32;;;;;;;11.23;4.75;;;;;;;-0.07;91.32;101253.47;10425972;28;20049;-74
2022/12/20 00:47:34;;;;;;;9.93;5.03;;;;;;;-0.21;89.96;101243.59;10434035;28;20041;-75
2022/12/20 00:52:36;;;;;;;12.70;4.47;;;;;;;-0.29;89.49;101251.00;10436199;28;20053;-75
2022/12/20 00:57:39;;;;;;;7.45;3.97;;;;;;;-0.50;88.46;101247.31;10435098;28;20058;-75
2022/12/20 01:02:41;;;;;;;9.27;4.68;;;;;;;-0.72;88.36;101229.47;10432118;28;20042;-75
2022/12/20 01:07:43;;;;;;;11.30;4.95;;;;;;;-0.73;87.72;101223.25;10428669;28;20046;-74
2022/12/20 01:12:45;;;;;;;10.63;4.65;;;;;;;-0.69;87.52;101221.03;10434396;28;20049;-74
2022/12/20 01:17:48;;;;;;;9.60;3.85;;;;;;;-0.72;87.33;101207.91;10440280;28;20496;-75
2022/12/20 01:22:51;;;;;;;9.20;4.32;;;;;;;-0.66;87.32;101205.28;10429801;28;20052;-75
2022/12/20 01:27:53;;;;;;;10.63;4.68;;;;;;;-0.64;86.39;101208.63;10436349;28;20488;-75
2022/12/20 01:32:56;;;;;;;8.98;4.18;;;;;;;-0.93;85.37;101204.19;10433108;28;20054;-75
2022/12/20 01:37:58;;;;;;;13.25;4.75;;;;;;;-0.92;85.43;101189.69;10414582;28;20057;-74
2022/12/20 01:43:00;;;;;;;11.32;4.63;;;;;;;-0.92;84.48;101187.00;10430412;28;20510;-74
2022/12/20 01:48:02;;;;;;;9.50;4.43;;;;;;;-0.94;84.44;101189.06;10444458;28;20530;-75
2022/12/20 01:53:05;;;;;;;10.45;4.90;;;;;;;-1.05;84.09;101176.09;10438554;28;20053;-75
2022/12/20 01:58:10;;;;;;;10.45;4.55;;;;;;;-1.17;83.92;101182.19;10411939;28;20049;-74
2022/12/20 02:03:13;;;;;;;11.93;4.78;;;;;;;-1.16;83.53;101190.09;10424419;28;20053;-74
2022/12/20 02:08:18;;;;;;;14.57;5.40;;;;;;;-1.17;82.69;101177.66;10410784;28;20148;-74
2022/12/20 02:13:49;;;;;;;10.65;4.93;;;;;;;-1.08;82.33;101163.00;10421141;28;20042;-74
2022/12/20 02:18:59;;;;;;;10.43;4.70;;;;;;;-1.25;82.29;101167.81;10440207;28;20045;-74
2022/12/20 02:24:40;;;;;;;9.50;4.78;;;;;;;-1.59;81.54;101167.63;10435150;28;20607;-74
2022/12/20 02:30:16;;;;;;;10.48;4.65;;;;;;;-1.69;81.66;101169.78;10424642;28;20037;-74
2022/12/20 02:35:22;;;;;;;10.60;5.18;;;;;;;-1.75;81.95;101167.84;10438312;28;20045;-74
2022/12/20 02:40:31;;;;;;;12.27;4.82;;;;;;;-1.80;81.63;101162.19;10423644;28;20049;-74
2022/12/20 02:45:34;;;;;;;12.77;4.22;;;;;;;-1.79;81.36;101156.63;10428547;28;20049;-75
2022/12/20 02:50:46;;;;;;;12.73;4.97;;;;;;;-1.80;80.76;101144.19;10419531;28;20050;-75
2022/12/20 02:56:18;;;;;;;11.50;4.07;;;;;;;-1.72;80.66;101143.28;10449950;28;20416;-75
2022/12/20 03:01:28;;;;;;;10.65;4.18;;;;;;;-1.56;80.17;101125.03;10423580;28;20048;-74
2022/12/20 03:06:30;;;;;;;11.98;4.75;;;;;;;-1.55;80.41;101118.63;10445441;28;20030;-74
2022/12/20 03:11:33;;;;;;;9.32;4.30;;;;;;;-1.71;79.99;101110.78;10434493;28;20037;-74
2022/12/20 03:16:37;;;;;;;13.10;5.32;;;;;;;-1.68;80.31;101110.41;10450723;28;20061;-74
2022/12/20 03:21:40;;;;;;;11.35;5.05;;;;;;;-1.64;80.62;101110.84;10443313;28;20046;-74
2022/12/20 03:26:42;;;;;;;15.93;5.32;;;;;;;-1.47;80.67;101106.06;10425489;28;20146;-74
2022/12/20 03:31:46;;;;;;;13.57;5.50;;;;;;;-1.51;79.83;101089.47;10434863;28;20500;-74
2022/12/20 03:36:48;;;;;;;14.43;5.20;;;;;;;-1.56;80.05;101075.78;10421532;28;20064;-75
2022/12/20 03:41:51;;;;;;;10.98;4.78;;;;;;;-1.47;80.16;101076.47;10447541;28;20045;-74
2022/12/20 03:46:54;;;;;;;10.45;4.38;;;;;;;-1.46;79.99;101064.69;10441369;28;20053;-73
2022/12/20 03:51:56;;;;;;;14.38;4.88;;;;;;;-1.50;80.04;101061.53;10439112;28;20033;-74
2022/12/20 03:56:59;;;;;;;9.65;4.07;;;;;;;-1.76;79.86;101059.41;10413799;28;20041;-74
2022/12/20 04:02:03;;;;;;;9.02;4.03;;;;;;;-1.68;80.27;101056.59;10436804;28;20045;-74
2022/12/20 04:07:05;;;;;;;11.52;4.05;;;;;;;-1.60;80.26;101045.69;10429899;28;20042;-73
2022/12/20 04:12:09;;;;;;;10.40;4.75;;;;;;;-1.61;80.77;101041.34;10435917;28;20037;-73
2022/12/20 04:17:13;;;;;;;10.80;5.35;;;;;;;-1.65;80.04;101039.25;10444093;28;20049;-74
2022/12/20 04:22:17;;;;;;;12.55;4.68;;;;;;;-1.68;79.80;101034.25;10432375;28;20041;-73
2022/12/20 04:27:33;;;;;;;12.25;5.18;;;;;;;-1.79;79.93;101021.28;10427659;28;20048;-74
2022/12/20 04:32:42;;;;;;;12.57;5.13;;;;;;;-1.71;79.41;101019.31;10411883;28;20119;-75
2022/12/20 04:37:46;;;;;;;12.10;5.30;;;;;;;-1.89;79.77;101021.63;10417427;28;20084;-74
2022/12/20 04:42:49;;;;;;;14.70;5.28;;;;;;;-1.98;79.69;101010.13;10444175;28;20041;-81
2022/12/20 04:47:53;;;;;;;15.43;6.15;;;;;;;-1.90;80.08;101004.66;10434423;28;20075;-74
2022/12/20 04:58:27;;;;;;;15.48;5.85;;;;;;;-1.83;79.30;100993.94;10416754;28;20065;-77
2022/12/20 05:03:30;;;;;;;15.10;4.88;;;;;;;-1.91;79.67;100991.38;10446011;28;20184;-77
2022/12/20 05:08:34;;;;;;;20.80;5.97;;;;;;;-1.98;79.53;100990.47;10409527;28;20100;-76
2022/12/20 05:13:37;;;;;;;15.57;6.13;;;;;;;-2.26;79.88;100987.66;10419825;28;20084;-75
2022/12/20 05:18:44;;;;;;;14.25;5.13;;;;;;;-2.39;80.54;100982.97;10438764;28;20041;-76
2022/12/20 05:29:17;;;;;;;14.48;5.65;;;;;;;-3.19;79.87;100990.94;10420845;28;20045;-75
2022/12/20 05:34:20;;;;;;;11.07;4.85;;;;;;;-3.38;80.65;100987.75;10443906;28;20052;-75
2022/12/20 05:39:29;;;;;;;13.43;5.55;;;;;;;-3.40;80.55;100979.06;10440737;28;20049;-76
2022/12/20 05:44:35;;;;;;;15.00;5.18;;;;;;;-3.44;80.22;100985.00;10444448;28;20052;-75
2022/12/20 05:49:38;;;;;;;15.25;4.97;;;;;;;-3.43;80.47;100982.13;10440829;28;20532;-75
2022/12/20 05:55:13;;;;;;;12.10;4.43;;;;;;;-3.25;80.42;100971.06;10441901;28;20041;-75
2022/12/20 06:00:20;;;;;;;13.55;5.63;;;;;;;-3.44;80.27;100969.72;10407311;28;20042;-74
2022/12/20 06:05:27;;;;;;;13.30;6.05;;;;;;;-3.42;79.87;100964.19;10426552;28;20042;-75
2022/12/20 06:10:33;;;;;;;15.65;6.47;;;;;;;-3.54;80.39;100960.25;10423800;28;20041;-75
2022/12/20 06:15:40;;;;;;;19.67;6.85;;;;;;;-3.44;79.88;100963.53;10439882;28;20068;-75
2022/12/20 06:20:51;;;;;;;17.80;6.90;;;;;;;-3.60;80.06;100966.34;10440671;28;20124;-75
2022/12/20 06:25:57;;;;;;;16.75;6.97;;;;;;;-3.68;79.84;100977.97;10440842;28;20050;-75
2022/12/20 06:31:01;;;;;;;18.05;7.05;;;;;;;-3.80;79.16;100990.97;10418800;28;20053;-75
2022/12/20 06:36:19;;;;;;;19.98;7.85;;;;;;;-3.93;79.00;100973.81;10443956;28;20386;-75
2022/12/20 06:41:52;;;;;;;12.88;5.68;;;;;;;-4.34;78.44;100974.91;10415732;28;20069;-74
2022/12/20 06:46:55;;;;;;;17.13;6.82;;;;;;;-4.49;78.70;100973.16;10443041;28;20053;-75
2022/12/20 06:52:01;;;;;;;17.45;6.95;;;;;;;-4.67;78.92;100976.91;10434010;28;20042;-75
2022/12/20 06:57:16;;;;;;;19.65;7.25;;;;;;;-4.79;79.11;100986.31;10429912;28;20045;-77
2022/12/20 07:02:22;;;;;;;19.33;6.75;;;;;;;-5.00;80.31;100968.16;10441678;28;20049;-75
2022/12/20 07:07:28;;;;;;;15.50;6.35;;;;;;;-4.93;79.85;100970.97;10438625;28;20037;-75
2022/12/20 07:12:32;;;;;;;10.40;4.07;;;;;;;-4.88;79.69;100981.97;10422560;28;20434;-75
2022/12/20 07:17:34;;;;;;;17.15;6.82;;;;;;;-4.93;79.64;100992.38;10423922;28;20045;-75
2022/12/20 07:22:36;;;;;;;12.90;5.57;;;;;;;-4.91;79.38;100971.63;10406415;28;20045;-75
2022/12/20 07:27:38;;;;;;;16.73;7.00;;;;;;;-5.27;79.37;100973.91;10415586;28;20455;-75
2022/12/20 07:32:41;;;;;;;17.92;7.95;;;;;;;-5.29;80.04;100992.78;10429251;28;20046;-74
2022/12/20 07:37:43;;;;;;;19.60;6.50;;;;;;;-5.49;79.44;100996.81;10403084;28;20054;-74
2022/12/20 07:42:45;;;;;;;18.48;7.32;;;;;;;-5.36;79.09;100989.13;10439528;28;20056;-74
2022/12/20 07:47:48;;;;;;;14.55;6.72;;;;;;;-5.51;78.56;100969.44;10429304;28;20049;-74
2022/12/20 07:52:50;;;;;;;21.17;7.88;;;;;;;-5.43;78.35;100961.38;10442412;28;20042;-74
2022/12/20 07:57:56;;;;;;;20.42;6.80;;;;;;;-5.62;78.26;100951.03;10432609;28;20096;-75
2022/12/20 08:03:08;;;;;;;17.17;7.18;;;;;;;-5.46;78.37;100945.69;10431229;28;20049;-74
2022/12/20 08:08:10;;;;;;;17.30;6.88;;;;;;;-5.45;78.24;100947.34;10439360;28;20049;-75
2022/12/20 08:13:12;;;;;;;17.02;5.90;;;;;;;-5.39;77.77;100941.31;10434252;28;20053;-75
2022/12/20 08:18:15;;;;;;;15.32;6.90;;;;;;;-5.50;77.54;100945.19;10447827;28;20049;-76
2022/12/20 08:23:18;;;;;;;14.68;6.60;;;;;;;-5.49;77.58;100946.03;10447098;28;20037;-74
2022/12/20 08:28:20;;;;;;;14.07;6.00;;;;;;;-5.72;76.66;100945.91;10446306;28;20550;-74
2022/12/20 08:33:22;;;;;;;16.55;6.78;;;;;;;-6.11;76.90;100940.38;10435119;28;20049;-75
2022/12/20 08:38:26;;;;;;;14.63;6.20;;;;;;;-6.13;77.41;100945.06;10433593;28;20053;-75
2022/12/20 08:43:29;;;;;;;19.23;7.50;;;;;;;-5.99;77.25;100947.09;10431372;28;20041;-75
2022/12/20 08:48:32;;;;;;;12.93;5.68;;;;;;;-6.23;77.16;100945.22;10428328;28;20053;-74
2022/12/20 08:53:34;;;;;;;17.23;6.30;;;;;;;-6.17;77.17;100946.41;10435501;28;20037;-74
2022/12/20 08:58:37;;;;;;;14.02;5.38;;;;;;;-6.15;77.08;100947.06;10410966;28;20160;-74
2022/12/20 09:03:40;;;;;;;15.90;7.53;;;;;;;-5.99;77.02;100939.06;10447896;28;20060;-73
2022/12/20 09:08:42;;;;;;;19.98;7.35;;;;;;;-5.77;76.72;100932.19;10447651;28;20538;-75
2022/12/20 09:13:46;;;;;;;14.15;5.40;;;;;;;-5.65;76.68;100924.66;10445201;28;20059;-74
2022/12/20 09:18:50;;;;;;;15.48;6.43;;;;;;;-5.89;75.59;100907.66;10446997;28;20053;-74
2022/12/20 09:23:53;;;;;;;19.08;6.75;;;;;;;-5.74;76.05;100898.94;10445330;28;20045;-74
2022/12/20 09:28:55;;;;;;;16.60;6.97;;;;;;;-5.72;75.50;100896.94;10446462;28;20453;-74
2022/12/20 09:33:58;;;;;;;16.45;5.90;;;;;;;-5.78;75.18;100895.75;10443551;28;20052;-74
2022/12/20 09:39:01;;;;;;;18.52;7.60;;;;;;;-5.64;74.89;100891.56;10446395;28;20045;-75
2022/12/20 09:44:28;;;;;;;16.90;7.75;;;;;;;-5.83;74.34;100874.91;10445764;28;20049;-74
2022/12/20 09:49:35;;;;;;;18.02;7.10;;;;;;;-6.25;74.22;100877.78;10439176;28;20048;-76
2022/12/20 09:54:56;;;;;;;18.42;7.63;;;;;;;-6.25;74.84;100880.44;10375190;28;20412;-75
2022/12/20 09:59:58;;;;;;;18.92;7.00;;;;;;;-6.31;75.44;100888.28;10429965;28;20041;-75
2022/12/20 10:05:00;;;;;;;23.42;7.50;;;;;;;-6.27;74.60;100881.63;10433075;28;20057;-76
2022/12/20 10:10:40;;;;;;;18.05;7.20;;;;;;;-6.52;73.73;100891.44;10436865;28;20042;-76
2022/12/20 10:16:11;;;;;;;18.38;7.03;;;;;;;-6.31;74.25;100881.13;10406291;28;20099;-76
2022/12/20 10:21:20;;;;;;;19.75;7.47;;;;;;;-6.36;74.43;100872.78;10443952;28;20075;-75
2022/12/20 10:26:22;;;;;;;19.00;6.57;;;;;;;-6.37;74.63;100873.78;10439466;28;20063;-77
2022/12/20 10:31:25;;;;;;;20.83;7.95;;;;;;;-6.49;74.39;100883.09;10445313;28;20063;-75
2022/12/20 10:36:33;;;;;;;23.95;7.35;;;;;;;-6.33;74.46;100882.28;10441379;28;20048;-75
2022/12/20 10:41:41;;;;;;;23.05;7.25;;;;;;;-6.39;74.36;100871.28;10442025;28;20459;-75
2022/12/20 10:46:49;;;;;;;22.80;7.90;;;;;;;-6.21;74.36;100851.59;10443043;28;20062;-76
2022/12/20 10:51:55;;;;;;;17.92;7.25;;;;;;;-6.21;73.85;100855.09;10444780;28;20045;-76
2022/12/20 10:57:00;;;;;;;14.70;6.95;;;;;;;-6.32;73.06;100838.56;10444661;28;20041;-76
2022/12/20 11:02:25;;;;;;;14.48;6.18;;;;;;;-6.37;72.58;100836.41;10443088;28;20053;-75
2022/12/20 11:07:31;;;;;;;13.20;6.10;;;;;;;-6.64;73.33;100840.19;10443156;28;20048;-76
2022/12/20 11:12:35;;;;;;;14.20;6.47;;;;;;;-6.56;74.39;100853.56;10445089;28;20404;-75
2022/12/20 11:17:45;;;;;;;18.38;7.65;;;;;;;-6.29;74.37;100846.22;10451773;28;20496;-75
2022/12/20 11:22:58;;;;;;;14.43;6.30;;;;;;;-6.17;73.86;100843.06;10451334;28;20045;-75
2022/12/20 11:28:28;;;;;;;17.85;6.78;;;;;;;-6.18;73.13;100837.91;10452534;28;20049;-75
2022/12/20 11:33:36;;;;;;;16.77;7.85;;;;;;;-6.22;73.86;100840.06;10446971;28;20033;-74
2022/12/20 11:39:00;;;;;;;22.85;8.50;;;;;;;-6.40;72.94;100845.59;10450656;28;20395;-75
2022/12/20 11:44:12;;;;;;;11.20;5.38;;;;;;;-6.70;72.31;100851.53;10450511;28;20050;-76
2022/12/20 11:49:33;;;;;;;12.80;5.32;;;;;;;-6.89;72.24;100851.84;10433574;28;20034;-76
2022/12/20 11:54:41;;;;;;;13.88;6.13;;;;;;;-6.83;72.44;100849.34;10444322;28;20049;-76
2022/12/20 11:59:59;;;;;;;15.52;7.00;;;;;;;-6.85;71.99;100843.34;10447031;28;20041;-74
2022/12/20 12:05:12;;;;;;;18.33;7.10;;;;;;;-6.65;72.30;100843.88;10447644;28;20045;-75
2022/12/20 12:10:17;;;;;;;16.48;6.28;;;;;;;-6.67;72.45;100827.19;10438515;28;20037;-76
2022/12/20 12:15:30;;;;;;;12.77;5.93;;;;;;;-6.76;72.15;100833.53;10434312;28;20038;-74
2022/12/20 12:20:38;;;;;;;14.65;6.80;;;;;;;-6.69;71.85;100839.88;10434466;28;20068;-74
2022/12/20 12:25:40;;;;;;;18.23;7.53;;;;;;;-6.50;72.14;100846.72;10419223;28;20049;-74
2022/12/20 12:30:46;;;;;;;20.20;6.38;;;;;;;-6.53;72.62;100831.06;10422393;28;20053;-75
2022/12/20 12:35:51;;;;;;;17.27;5.65;;;;;;;-6.92;72.96;100826.31;10420738;28;20046;-74
2022/12/20 12:41:00;;;;;;;19.52;7.00;;;;;;;-7.00;73.09;100810.28;10423215;28;20038;-73
2022/12/20 12:46:08;;;;;;;17.17;6.57;;;;;;;-7.07;73.66;100809.28;10421035;28;20050;-72
2022/12/20 12:51:11;;;;;;;;;;;;;;;-6.94;73.19;100806.97;10434461;28;20151;-74
2022/12/20 12:56:25;;;;;;;16.70;6.32;;;;;;;-7.10;73.20;100815.78;10445174;28;19931;-73
2022/12/20 13:02:09;;;;;;;18.35;6.55;;;;;;;-7.13;73.76;100810.75;10447125;28;20046;-75
2022/12/20 13:07:32;;;;;;;17.52;6.07;;;;;;;-7.00;73.64;100805.78;10444205;28;20049;-73
2022/12/20 13:12:37;;;;;;;13.70;6.13;;;;;;;-7.17;73.39;100806.75;10439404;28;20518;-75
2022/12/20 13:17:46;;;;;;;15.38;6.47;;;;;;;-7.12;72.81;100796.41;10439845;28;20046;-75
2022/12/20 13:23:07;;;;;;;13.35;5.22;;;;;;;-6.95;72.50;100799.94;10431413;28;20050;-74
2022/12/20 13:28:20;;;;;;;19.23;5.38;;;;;;;-7.16;72.58;100791.56;10440526;28;20044;-73
2022/12/20 13:33:42;;;;;;;13.50;5.15;;;;;;;-7.27;73.29;100786.56;10445476;28;20046;-75
2022/12/20 13:38:44;;;;;;;9.35;4.05;;;;;;;-7.62;73.00;100789.25;10429095;28;20053;-75
2022/12/20 13:43:48;;;;;;;13.85;5.28;;;;;;;-7.70;73.56;100772.41;10440852;28;20045;-73
2022/12/20 13:49:01;;;;;;;14.68;4.22;;;;;;;-7.74;73.83;100779.03;10429688;28;20038;-73
2022/12/20 13:54:22;;;;;;;15.10;5.32;;;;;;;-7.81;74.35;100786.84;10461068;28;20052;-73
2022/12/20 13:59:30;;;;;;;11.52;5.18;;;;;;;-7.75;73.73;100780.88;10448081;28;20045;-72
2022/12/20 14:04:40;;;;;;;17.23;5.03;;;;;;;-7.96;74.69;100807.06;10445204;28;20555;-73
2022/12/20 14:15:34;;;;;;;7.90;4.13;;;;;;;-7.81;75.27;100807.28;10434629;28;20046;-73
2022/12/20 14:20:37;;;;;;;12.63;5.03;;;;;;;-7.91;75.49;100831.38;10414962;28;20053;-73
2022/12/20 14:25:43;;;;;;;13.75;5.72;;;;;;;-8.06;75.37;100833.78;10435209;28;20037;-73
2022/12/20 14:30:55;;;;;;;12.07;5.55;;;;;;;-8.09;76.07;100825.28;10448323;28;20064;-73
2022/12/20 14:36:26;;;;;;;14.75;5.50;;;;;;;-8.08;76.32;100840.25;10407980;28;20048;-73
2022/12/20 14:41:36;;;;;;;11.50;4.78;;;;;;;-7.92;76.48;100833.22;10417351;28;20041;-79
2022/12/20 14:46:39;;;;;;;10.75;4.30;;;;;;;-8.10;76.00;100820.94;10395728;28;20519;-74
2022/12/20 14:51:42;;;;;;;13.60;5.65;;;;;;;-8.30;75.99;100821.13;10416637;28;20046;-73
2022/12/20 14:56:46;;;;;;;5.75;3.88;;;;;;;-8.34;76.74;100818.94;10418175;28;20069;-73
2022/12/20 15:01:48;;;;;;;11.55;5.82;;;;;;;-8.34;77.02;100800.31;10416946;28;20056;-74
2022/12/20 15:06:55;;;;;;;11.90;4.93;;;;;;;-8.47;77.27;100798.09;10421846;28;20037;-73
2022/12/20 15:11:57;;;;;;;12.80;5.78;;;;;;;-8.41;76.84;100810.75;10417118;28;20046;-73
2022/12/20 15:17:00;;;;;;;10.50;4.63;;;;;;;-8.49;76.53;100799.22;10413160;28;20096;-74
2022/12/20 15:22:02;;;;;;;12.18;5.28;;;;;;;-8.57;76.27;100789.34;10403703;28;20045;-77
2022/12/20 15:27:05;;;;;;;11.95;4.82;;;;;;;-8.72;76.63;100789.03;10414653;28;20419;-74
2022/12/20 15:32:23;;;;;;;6.78;3.30;;;;;;;-8.65;76.22;100768.00;10419802;28;20037;-73
2022/12/20 15:37:26;;;;;;;9.70;3.40;;;;;;;-8.75;75.85;100760.09;10402286;28;20140;-74
2022/12/20 15:42:28;;;;;;;8.40;3.83;;;;;;;-8.75;76.38;100754.78;10412533;28;20038;-73
2022/12/20 15:47:30;;;;;;;3.47;2.05;;;;;;;-8.88;76.86;100787.06;10410259;28;20054;-72
2022/12/20 15:52:32;;;;;;;9.35;4.18;;;;;;;-8.98;76.82;100772.19;10421528;28;20416;-73
2022/12/20 15:57:34;;;;;;;5.95;3.38;;;;;;;-8.99;76.66;100774.03;10426957;28;20046;-73
2022/12/20 16:02:37;;;;;;;13.82;5.03;;;;;;;-8.96;77.16;100784.34;10407015;28;20046;-74
2022/12/20 16:07:39;;;;;;;8.32;3.42;;;;;;;-8.95;76.50;100786.00;10421576;28;20045;-72
2022/12/20 16:12:41;;;;;;;12.23;4.45;;;;;;;-9.05;76.08;100781.75;10421870;28;20065;-78
2022/12/20 16:17:43;;;;;;;9.93;4.10;;;;;;;-9.11;76.88;100777.88;10421672;28;20081;-77
2022/12/20 16:22:46;;;;;;;8.88;3.85;;;;;;;-9.04;76.83;100765.63;10440141;28;20060;-74
2022/12/20 16:27:48;;;;;;;9.60;4.80;;;;;;;-9.02;76.96;100762.81;10445516;28;20045;-77
2022/12/20 16:32:51;;;;;;;8.73;4.40;;;;;;;-8.93;76.79;100768.09;10440729;28;20041;-77
2022/12/20 16:37:54;;;;;;;8.48;5.18;;;;;;;-8.85;76.81;100762.84;10418671;28;20061;-77
2022/12/20 16:42:58;;;;;;;10.65;3.88;;;;;;;-8.77;76.07;100738.16;10422885;28;20038;-79
2022/12/20 16:48:01;;;;;;;18.75;6.47;;;;;;;-8.90;76.46;100738.53;10397846;28;20412;-77
2022/12/20 16:53:03;;;;;;;7.38;3.78;;;;;;;-9.04;76.17;100739.06;10430799;28;20045;-74
2022/12/20 16:58:05;;;;;;;9.57;4.22;;;;;;;-9.09;76.53;100735.19;10441686;28;20144;-77
2022/12/20 17:03:08;;;;;;;9.40;5.10;;;;;;;-8.95;76.78;100716.06;10445068;28;20395;-77
2022/12/20 17:08:10;;;;;;;10.65;3.83;;;;;;;-9.02;76.25;100705.22;10439318;28;20054;-76
2022/12/20 17:13:13;;;;;;;11.32;5.20;;;;;;;-9.02;76.95;100681.28;10441211;28;20048;-75
2022/12/20 17:18:15;;;;;;;11.13;4.82;;;;;;;-8.93;76.78;100680.34;10445171;28;20045;-77
2022/12/20 17:23:17;;;;;;;6.28;4.00;;;;;;;-8.89;76.19;100680.88;10448156;28;20042;-74
2022/12/20 17:28:20;;;;;;;8.48;4.60;;;;;;;-8.75;76.21;100682.97;10487178;28;20053;-76
2022/12/20 17:33:22;;;;;;;12.48;4.95;;;;;;;-8.52;76.06;100680.63;10419857;28;20041;-78
2022/12/20 17:38:24;;;;;;;13.88;6.05;;;;;;;-8.64;75.51;100676.59;10449199;28;20064;-78
2022/12/20 17:43:27;;;;;;;10.05;4.75;;;;;;;-8.76;75.87;100680.47;10426180;28;20401;-74
2022/12/20 17:48:29;;;;;;;14.50;4.88;;;;;;;-8.71;76.69;100672.84;10422414;28;20108;-75
2022/12/20 17:53:31;;;;;;;5.88;4.55;;;;;;;-8.71;76.03;100680.84;10429475;28;20053;-77
2022/12/20 17:58:34;;;;;;;8.55;4.05;;;;;;;-8.91;77.28;100681.03;10411556;28;20056;-75
2022/12/20 18:03:41;;;;;;;12.32;4.28;;;;;;;-8.85;76.67;100677.78;10416347;28;20056;-74
2022/12/20 18:08:54;;;;;;;10.13;4.53;;;;;;;-8.82;76.57;100685.44;10405992;28;20041;-74
2022/12/20 18:13:57;;;;;;;7.95;3.97;;;;;;;-8.84;76.55;100692.72;10422005;28;20036;-74
2022/12/20 18:19:01;;;;;;;8.13;3.80;;;;;;;-8.84;77.26;100689.25;10430836;28;20037;-75
2022/12/20 18:24:03;;;;;;;13.18;6.10;;;;;;;-8.97;77.30;100689.63;10424645;28;20041;-74
2022/12/20 18:29:05;;;;;;;9.38;4.15;;;;;;;-9.11;77.34;100660.94;10416422;28;20053;-73
2022/12/20 18:34:08;;;;;;;8.52;4.05;;;;;;;-9.07;77.33;100661.44;10428257;28;20054;-73
2022/12/20 18:39:12;;;;;;;7.68;4.32;;;;;;;-8.98;78.37;100658.72;10444209;28;20037;-73
2022/12/20 18:44:14;;;;;;;11.73;4.68;;;;;;;-9.09;78.05;100647.50;10439067;28;20044;-74
2022/12/20 18:49:16;;;;;;;9.45;5.05;;;;;;;-9.04;78.26;100638.06;10435258;28;20034;-75
2022/12/20 18:54:19;;;;;;;7.75;4.22;;;;;;;-8.93;78.31;100626.34;10420684;28;20489;-75
2022/12/20 18:59:21;;;;;;;8.85;5.57;;;;;;;-8.96;78.56;100635.47;10429747;28;20050;-75
2022/12/20 19:04:23;;;;;;;12.10;4.07;;;;;;;-8.76;78.26;100633.44;10426245;28;20558;-74
2022/12/20 19:09:26;;;;;;;9.90;4.90;;;;;;;-8.77;79.02;100634.44;10429991;28;20049;-73
2022/12/20 19:14:28;;;;;;;11.98;5.25;;;;;;;-8.89;79.00;100628.53;10433427;28;20044;-73
2022/12/20 19:19:30;;;;;;;9.80;4.65;;;;;;;-8.88;79.33;100630.19;10438844;28;20037;-74
2022/12/20 19:24:33;;;;;;;9.20;3.97;;;;;;;-8.83;78.72;100625.28;10447213;28;20037;-75
2022/12/20 19:29:36;;;;;;;10.40;4.82;;;;;;;-8.88;79.25;100624.88;10446279;28;20045;-74
2022/12/20 19:34:39;;;;;;;9.13;4.05;;;;;;;-8.90;78.91;100620.72;10427481;28;20030;-75
2022/12/20 19:39:42;;;;;;;7.80;4.88;;;;;;;-9.00;78.93;100620.81;10445949;28;20041;-74
2022/12/20 19:44:44;;;;;;;10.35;5.05;;;;;;;-8.93;79.46;100605.91;10441437;28;20049;-74
2022/12/20 19:49:46;;;;;;;12.43;5.43;;;;;;;-8.78;79.68;100608.84;10449243;28;20034;-74
2022/12/20 19:55:00;;;;;;;12.35;5.25;;;;;;;-8.84;79.45;100601.50;10412550;28;20045;-76
2022/12/20 20:00:07;;;;;;;7.95;4.47;;;;;;;-8.81;79.66;100579.91;10443090;28;20058;-76
2022/12/20 20:05:13;;;;;;;8.65;4.40;;;;;;;-8.84;79.63;100569.59;10425140;28;20508;-75
2022/12/20 20:10:16;;;;;;;10.60;3.97;;;;;;;-8.76;79.74;100572.28;10436050;28;20057;-75
2022/12/20 20:15:18;;;;;;;14.20;6.18;;;;;;;-8.91;79.59;100565.88;10427318;28;20029;-77
2022/12/20 20:20:40;;;;;;;14.52;6.75;;;;;;;-8.90;79.92;100567.53;10405234;28;20432;-76
2022/12/20 20:25:46;;;;;;;14.88;6.45;;;;;;;-8.86;80.45;100564.41;10432139;28;20041;-76
2022/12/20 20:30:49;;;;;;;12.85;6.00;;;;;;;-8.75;80.41;100565.13;10433972;28;20041;-74
2022/12/20 20:36:12;;;;;;;16.05;7.25;;;;;;;-8.59;80.22;100565.22;10452161;28;20049;-74
2022/12/20 20:41:15;;;;;;;12.48;6.80;;;;;;;-8.61;80.19;100557.41;10417704;28;20040;-74
2022/12/20 20:46:17;;;;;;;15.30;6.22;;;;;;;-8.61;80.42;100556.56;10417589;28;20042;-75
2022/12/20 20:51:19;;;;;;;13.75;6.97;;;;;;;-8.62;80.41;100554.91;10416884;28;20527;-73
2022/12/20 20:56:22;;;;;;;14.65;6.57;;;;;;;-8.71;80.95;100555.84;10411411;28;20053;-73
2022/12/20 21:01:24;;;;;;;12.13;6.95;;;;;;;-8.67;80.29;100557.22;10429525;28;20045;-74
2022/12/20 21:06:28;;;;;;;12.60;6.25;;;;;;;-8.60;80.44;100542.28;10429507;28;20377;-74
2022/12/20 21:11:32;;;;;;;15.73;6.63;;;;;;;-8.65;80.75;100537.44;10416813;28;20045;-75
2022/12/20 21:16:35;;;;;;;12.05;6.22;;;;;;;-8.63;80.98;100529.28;10422801;28;20037;-76
2022/12/20 21:21:37;;;;;;;17.67;6.75;;;;;;;-8.59;81.20;100522.66;10430860;28;20052;-77
2022/12/20 21:26:40;;;;;;;13.55;7.57;;;;;;;-8.49;81.12;100523.38;10425671;28;20901;-75
2022/12/20 21:31:42;;;;;;;14.43;7.20;;;;;;;-8.31;80.96;100517.91;10431549;28;20064;-75
2022/12/20 21:36:45;;;;;;;16.67;8.32;;;;;;;-8.43;80.67;100509.41;10436640;28;20053;-75
2022/12/20 21:41:47;;;;;;;14.98;7.53;;;;;;;-8.46;81.37;100499.09;10428029;28;20108;-76
2022/12/20 21:46:50;;;;;;;15.07;7.57;;;;;;;-8.49;82.07;100503.91;10412859;28;20037;-76
2022/12/20 21:51:55;;;;;;;18.55;7.78;;;;;;;-8.52;82.54;100502.38;10436036;28;20045;-75
2022/12/20 21:56:57;;;;;;;17.77;7.95;;;;;;;-8.47;82.76;100500.09;10430327;28;20046;-73
2022/12/20 22:02:00;;;;;;;15.13;8.05;;;;;;;-8.37;82.84;100492.78;10421295;28;20048;-73
2022/12/20 22:07:03;;;;;;;12.73;6.20;;;;;;;-8.35;83.25;100481.97;10410657;28;20037;-74
2022/12/20 22:12:06;;;;;;;14.10;7.55;;;;;;;-8.33;83.37;100477.28;10426868;28;20048;-75
2022/12/20 22:17:08;;;;;;;17.23;7.95;;;;;;;-8.28;83.39;100475.00;10428337;28;20416;-74
2022/12/20 22:22:11;;;;;;;13.50;7.75;;;;;;;-8.23;83.81;100465.53;10437029;28;20064;-74
2022/12/20 22:27:13;;;;;;;14.75;7.43;;;;;;;-8.22;83.95;100469.00;10442935;28;20041;-75
2022/12/20 22:32:16;;;;;;;15.82;7.57;;;;;;;-8.22;84.12;100455.69;10427567;28;20044;-74
2022/12/20 22:37:19;;;;;;;11.45;6.32;;;;;;;-8.20;84.28;100440.41;10413740;28;20057;-74
2022/12/20 22:42:21;;;;;;;12.85;6.15;;;;;;;-8.27;84.28;100434.91;10433122;28;20046;-79
2022/12/20 22:47:24;;;;;;;9.27;5.38;;;;;;;-8.29;84.41;100428.09;10408143;28;20041;-74
2022/12/20 22:52:26;;;;;;;13.25;6.88;;;;;;;-8.23;85.31;100417.59;10415017;28;20528;-76
2022/12/20 22:57:29;;;;;;;14.23;7.93;;;;;;;-8.14;84.83;100412.31;10403505;28;20401;-74
2022/12/20 23:02:31;;;;;;;16.98;7.25;;;;;;;-8.02;85.18;100403.81;10419608;28;20042;-74
2022/12/20 23:07:33;;;;;;;12.57;6.20;;;;;;;-7.91;85.67;100392.81;10409173;28;20073;-73
2022/12/20 23:17:57;;;;;;;14.07;6.75;;;;;;;-7.96;86.13;100391.66;10430144;28;20049;-75
2022/12/20 23:22:59;;;;;;;15.98;7.90;;;;;;;-7.86;87.12;100391.47;10440418;28;20037;-77
2022/12/20 23:28:01;;;;;;;10.68;5.78;;;;;;;-7.78;87.18;100376.34;10415363;28;20045;-76
2022/12/20 23:33:04;;;;;;;14.32;7.47;;;;;;;-7.85;87.81;100375.31;10449386;28;20041;-76
2022/12/20 23:38:06;;;;;;;16.38;7.50;;;;;;;-7.84;88.37;100363.69;10443890;28;20060;-74